createdAt,value
2018-05-17T00:00:37.104Z,886.49
2018-05-17T00:01:37.095Z,886.50
2018-05-17T00:02:37.091Z,886.52
2018-05-17T00:03:37.066Z,886.50
2018-05-17T00:04:37.053Z,886.51
2018-05-17T00:05:37.052Z,886.49
2018-05-17T00:06:37.034Z,886.51
2018-05-17T00:07:37.017Z,886.48
2018-05-17T00:08:37.003Z,886.50
2018-05-17T00:09:36.996Z,886.48
2018-05-17T00:10:36.981Z,886.48
2018-05-17T00:11:36.966Z,886.51
2018-05-17T00:12:36.955Z,886.51
2018-05-17T00:13:36.948Z,886.52
2018-05-17T00:14:36.935Z,886.51
2018-05-17T00:15:36.914Z,886.54
2018-05-17T00:16:36.908Z,886.56
2018-05-17T00:17:36.897Z,886.55
2018-05-17T00:18:36.879Z,886.54
2018-05-17T00:19:36.872Z,886.52
2018-05-17T00:20:36.859Z,886.55
2018-05-17T00:21:36.840Z,886.57
2018-05-17T00:22:36.832Z,886.56
2018-05-17T00:23:36.818Z,886.58
2018-05-17T00:24:36.804Z,886.55
2018-05-17T00:25:36.797Z,886.57
2018-05-17T00:26:36.777Z,886.56
2018-05-17T00:27:36.767Z,886.56
2018-05-17T00:28:36.755Z,886.56
2018-05-17T00:29:36.739Z,886.53
2018-05-17T00:30:36.729Z,886.54
2018-05-17T00:31:36.720Z,886.51
2018-05-17T00:32:36.703Z,886.56
2018-05-17T00:33:36.694Z,886.50
2018-05-17T00:34:36.682Z,886.47
2018-05-17T00:35:36.664Z,886.47
2018-05-17T00:36:36.659Z,886.48
2018-05-17T00:37:36.641Z,886.46
2018-05-17T00:38:36.635Z,886.47
2018-05-17T00:39:36.621Z,886.46
2018-05-17T00:40:36.605Z,886.50
2018-05-17T00:41:36.593Z,886.50
2018-05-17T00:42:36.577Z,886.49
2018-05-17T00:43:36.565Z,886.48
2018-05-17T00:44:36.558Z,886.45
2018-05-17T00:45:36.548Z,886.49
2018-05-17T00:46:36.532Z,886.45
2018-05-17T00:47:36.515Z,886.45
2018-05-17T00:48:36.508Z,886.45
2018-05-17T00:49:36.486Z,886.40
2018-05-17T00:50:36.482Z,886.41
2018-05-17T00:51:36.473Z,886.40
2018-05-17T00:52:36.457Z,886.40
2018-05-17T00:53:36.437Z,886.45
2018-05-17T00:54:36.426Z,886.41
2018-05-17T00:55:36.420Z,886.40
2018-05-17T00:56:36.398Z,886.39
2018-05-17T00:57:36.391Z,886.41
2018-05-17T00:58:36.376Z,886.40
2018-05-17T00:59:36.365Z,886.42
2018-05-17T01:00:36.359Z,886.44
2018-05-17T01:01:36.341Z,886.40
2018-05-17T01:02:36.328Z,886.39
2018-05-17T01:03:36.310Z,886.36
2018-05-17T01:04:36.298Z,886.35
2018-05-17T01:05:36.292Z,886.35
2018-05-17T01:06:36.282Z,886.34
2018-05-17T01:07:36.265Z,886.33
2018-05-17T01:08:36.254Z,886.34
2018-05-17T01:09:36.237Z,886.38
2018-05-17T01:10:36.228Z,886.36
2018-05-17T01:11:36.212Z,886.33
2018-05-17T01:12:36.200Z,886.36
2018-05-17T01:13:36.186Z,886.33
2018-05-17T01:14:36.174Z,886.36
2018-05-17T01:15:36.159Z,886.34
2018-05-17T01:16:36.151Z,886.36
2018-05-17T01:17:36.136Z,886.38
2018-05-17T01:18:36.122Z,886.37
2018-05-17T01:19:36.111Z,886.39
2018-05-17T01:20:36.098Z,886.42
2018-05-17T01:21:36.082Z,886.40
2018-05-17T01:22:36.069Z,886.43
2018-05-17T01:23:36.061Z,886.42
2018-05-17T01:24:36.048Z,886.45
2018-05-17T01:25:36.033Z,886.41
2018-05-17T01:26:36.022Z,886.38
2018-05-17T01:27:36.006Z,886.38
2018-05-17T01:28:35.997Z,886.38
2018-05-17T01:29:35.985Z,886.37
2018-05-17T01:30:35.972Z,886.40
2018-05-17T01:31:35.960Z,886.35
2018-05-17T01:32:35.946Z,886.37
2018-05-17T01:33:35.932Z,886.40
2018-05-17T01:34:35.924Z,886.37
2018-05-17T01:35:35.912Z,886.39
2018-05-17T01:36:35.900Z,886.37
2018-05-17T01:37:35.882Z,886.37
2018-05-17T01:38:35.867Z,886.36
2018-05-17T01:39:35.857Z,886.38
2018-05-17T01:40:35.841Z,886.34
2018-05-17T01:41:35.826Z,886.36
2018-05-17T01:42:35.822Z,886.34
2018-05-17T01:43:35.807Z,886.33
2018-05-17T01:44:35.802Z,886.30
2018-05-17T01:45:35.783Z,886.32
2018-05-17T01:46:35.769Z,886.30
2018-05-17T01:47:35.758Z,886.31
2018-05-17T01:48:35.746Z,886.33
2018-05-17T01:49:35.738Z,886.30
2018-05-17T01:50:35.719Z,886.30
2018-05-17T01:51:35.704Z,886.27
2018-05-17T01:52:35.694Z,886.28
2018-05-17T01:53:35.687Z,886.26
2018-05-17T01:54:35.667Z,886.28
2018-05-17T01:55:35.651Z,886.29
2018-05-17T01:56:35.641Z,886.28
2018-05-17T01:57:35.628Z,886.28
2018-05-17T01:58:35.620Z,886.30
2018-05-17T01:59:35.607Z,886.30
2018-05-17T02:00:35.590Z,886.32
2018-05-17T02:01:35.583Z,886.32
2018-05-17T02:02:35.567Z,886.30
2018-05-17T02:03:35.554Z,886.35
2018-05-17T02:04:35.542Z,886.33
2018-05-17T02:05:35.533Z,886.35
2018-05-17T02:06:35.516Z,886.29
2018-05-17T02:07:35.504Z,886.34
2018-05-17T02:08:35.493Z,886.31
2018-05-17T02:09:35.480Z,886.31
2018-05-17T02:10:35.462Z,886.28
2018-05-17T02:11:35.457Z,886.31
2018-05-17T02:12:35.442Z,886.30
2018-05-17T02:13:35.430Z,886.28
2018-05-17T02:14:35.414Z,886.26
2018-05-17T02:15:35.404Z,886.26
2018-05-17T02:16:35.388Z,886.23
2018-05-17T02:17:35.381Z,886.29
2018-05-17T02:18:35.366Z,886.26
2018-05-17T02:19:35.349Z,886.28
2018-05-17T02:20:35.346Z,886.26
2018-05-17T02:21:35.332Z,886.27
2018-05-17T02:22:35.319Z,886.28
2018-05-17T02:23:35.308Z,886.28
2018-05-17T02:24:35.290Z,886.24
2018-05-17T02:25:35.280Z,886.25
2018-05-17T02:26:35.267Z,886.28
2018-05-17T02:27:35.251Z,886.24
2018-05-17T02:28:35.243Z,886.26
2018-05-17T02:29:35.231Z,886.26
2018-05-17T02:30:35.216Z,886.27
2018-05-17T02:31:35.207Z,886.24
2018-05-17T02:32:35.192Z,886.33
2018-05-17T02:33:35.178Z,886.30
2018-05-17T02:34:35.167Z,886.31
2018-05-17T02:35:35.155Z,886.30
2018-05-17T02:36:35.145Z,886.33
2018-05-17T02:37:35.130Z,886.33
2018-05-17T02:38:35.113Z,886.32
2018-05-17T02:39:35.103Z,886.33
2018-05-17T02:40:35.091Z,886.33
2018-05-17T02:41:35.082Z,886.30
2018-05-17T02:42:35.062Z,886.34
2018-05-17T02:43:35.050Z,886.36
2018-05-17T02:44:35.042Z,886.36
2018-05-17T02:45:35.026Z,886.35
2018-05-17T02:46:35.012Z,886.39
2018-05-17T02:47:34.998Z,886.41
2018-05-17T02:48:34.989Z,886.39
2018-05-17T02:49:34.976Z,886.42
2018-05-17T02:50:34.965Z,886.40
2018-05-17T02:51:34.951Z,886.42
2018-05-17T02:52:34.944Z,886.41
2018-05-17T02:53:34.925Z,886.46
2018-05-17T02:54:34.914Z,886.43
2018-05-17T02:55:34.899Z,886.42
2018-05-17T02:56:34.890Z,886.41
2018-05-17T02:57:34.875Z,886.43
2018-05-17T02:58:34.860Z,886.45
2018-05-17T02:59:34.846Z,886.41
2018-05-17T03:00:34.844Z,886.42
2018-05-17T03:01:34.828Z,886.44
2018-05-17T03:02:34.826Z,886.41
2018-05-17T03:03:34.799Z,886.40
2018-05-17T03:04:34.787Z,886.42
2018-05-17T03:05:34.777Z,886.39
2018-05-17T03:06:34.762Z,886.41
2018-05-17T03:07:34.748Z,886.40
2018-05-17T03:08:34.736Z,886.35
2018-05-17T03:09:34.722Z,886.33
2018-05-17T03:10:34.715Z,886.35
2018-05-17T03:11:34.701Z,886.33
2018-05-17T03:12:34.688Z,886.33
2018-05-17T03:13:34.676Z,886.35
2018-05-17T03:14:34.661Z,886.37
2018-05-17T03:15:34.653Z,886.35
2018-05-17T03:16:34.635Z,886.37
2018-05-17T03:17:34.619Z,886.39
2018-05-17T03:18:34.611Z,886.37
2018-05-17T03:19:34.597Z,886.34
2018-05-17T03:20:34.590Z,886.32
2018-05-17T03:21:34.573Z,886.32
2018-05-17T03:22:34.562Z,886.26
2018-05-17T03:23:34.546Z,886.28
2018-05-17T03:24:34.534Z,886.26
2018-05-17T03:25:34.524Z,886.26
2018-05-17T03:26:34.508Z,886.23
2018-05-17T03:27:34.493Z,886.17
2018-05-17T03:28:34.480Z,886.22
2018-05-17T03:29:34.474Z,886.25
2018-05-17T03:30:34.459Z,886.25
2018-05-17T03:31:34.447Z,886.25
2018-05-17T03:32:34.433Z,886.28
2018-05-17T03:33:34.423Z,886.28
2018-05-17T03:34:34.407Z,886.28
2018-05-17T03:35:34.393Z,886.30
2018-05-17T03:36:34.379Z,886.32
2018-05-17T03:37:34.364Z,886.32
2018-05-17T03:38:34.360Z,886.29
2018-05-17T03:39:34.344Z,886.31
2018-05-17T03:40:34.330Z,886.32
2018-05-17T03:41:34.314Z,886.28
2018-05-17T03:42:34.304Z,886.30
2018-05-17T03:43:34.292Z,886.33
2018-05-17T03:44:34.282Z,886.27
2018-05-17T03:45:34.270Z,886.29
2018-05-17T03:46:34.256Z,886.27
2018-05-17T03:47:34.243Z,886.31
2018-05-17T03:48:34.229Z,886.33
2018-05-17T03:49:34.220Z,886.32
2018-05-17T03:50:34.203Z,886.30
2018-05-17T03:51:34.194Z,886.30
2018-05-17T03:52:34.180Z,886.32
2018-05-17T03:53:34.165Z,886.33
2018-05-17T03:54:34.150Z,886.34
2018-05-17T03:55:34.140Z,886.31
2018-05-17T03:56:34.128Z,886.34
2018-05-17T03:57:34.112Z,886.37
2018-05-17T03:58:34.102Z,886.35
2018-05-17T03:59:34.090Z,886.35
2018-05-17T04:00:34.079Z,886.40
2018-05-17T04:01:34.065Z,886.35
2018-05-17T04:02:34.051Z,886.39
2018-05-17T04:03:34.038Z,886.40
2018-05-17T04:04:34.029Z,886.41
2018-05-17T04:05:34.014Z,886.43
2018-05-17T04:06:34.001Z,886.44
2018-05-17T04:07:33.985Z,886.42
2018-05-17T04:08:33.982Z,886.50
2018-05-17T04:09:33.957Z,886.49
2018-05-17T04:10:33.950Z,886.49
2018-05-17T04:11:33.932Z,886.52
2018-05-17T04:12:33.917Z,886.50
2018-05-17T04:13:33.908Z,886.52
2018-05-17T04:14:33.898Z,886.54
2018-05-17T04:15:33.884Z,886.57
2018-05-17T04:16:33.870Z,886.57
2018-05-17T04:17:33.859Z,886.55
2018-05-17T04:18:33.845Z,886.59
2018-05-17T04:19:33.831Z,886.62
2018-05-17T04:20:33.821Z,886.61
2018-05-17T04:21:33.817Z,886.64
2018-05-17T04:22:33.790Z,886.65
2018-05-17T04:23:33.781Z,886.65
2018-05-17T04:24:33.762Z,886.66
2018-05-17T04:25:33.757Z,886.68
2018-05-17T04:26:33.744Z,886.70
2018-05-17T04:27:33.732Z,886.73
2018-05-17T04:28:33.712Z,886.73
2018-05-17T04:29:33.704Z,886.77
2018-05-17T04:30:33.699Z,886.75
2018-05-17T04:31:33.683Z,886.74
2018-05-17T04:32:33.665Z,886.74
2018-05-17T04:33:33.651Z,886.75
2018-05-17T04:34:33.644Z,886.75
2018-05-17T04:35:33.628Z,886.79
2018-05-17T04:36:33.618Z,886.79
2018-05-17T04:37:33.605Z,886.80
2018-05-17T04:38:33.586Z,886.82
2018-05-17T04:39:33.578Z,886.83
2018-05-17T04:40:33.629Z,886.81
2018-05-17T04:41:33.556Z,886.84
2018-05-17T04:42:33.541Z,886.83
2018-05-17T04:43:33.530Z,886.85
2018-05-17T04:44:33.515Z,886.86
2018-05-17T04:45:33.499Z,886.85
2018-05-17T04:46:33.489Z,886.85
2018-05-17T04:47:33.470Z,886.84
2018-05-17T04:48:33.464Z,886.82
2018-05-17T04:49:33.449Z,886.83
2018-05-17T04:50:33.434Z,886.85
2018-05-17T04:51:33.422Z,886.82
2018-05-17T04:52:33.408Z,886.82
2018-05-17T04:53:33.397Z,886.84
2018-05-17T04:54:33.384Z,886.78
2018-05-17T04:55:33.375Z,886.80
2018-05-17T04:56:33.364Z,886.79
2018-05-17T04:57:33.347Z,886.81
2018-05-17T04:58:33.330Z,886.80
2018-05-17T04:59:33.322Z,886.79
2018-05-17T05:00:33.319Z,886.80
2018-05-17T05:01:33.293Z,886.80
2018-05-17T05:02:33.353Z,886.77
2018-05-17T05:03:33.268Z,886.77
2018-05-17T05:04:33.261Z,886.75
2018-05-17T05:05:33.240Z,886.71
2018-05-17T05:06:33.235Z,886.68
2018-05-17T05:07:33.218Z,886.67
2018-05-17T05:08:33.201Z,886.67
2018-05-17T05:09:33.210Z,886.67
2018-05-17T05:10:33.181Z,886.67
2018-05-17T05:11:33.171Z,886.66
2018-05-17T05:12:33.155Z,886.61
2018-05-17T05:13:33.144Z,886.64
2018-05-17T05:14:33.126Z,886.63
2018-05-17T05:15:33.123Z,886.62
2018-05-17T05:16:33.106Z,886.59
2018-05-17T05:17:33.094Z,886.58
2018-05-17T05:18:33.089Z,886.58
2018-05-17T05:19:33.067Z,886.57
2018-05-17T05:20:33.054Z,886.55
2018-05-17T05:21:33.041Z,886.57
2018-05-17T05:22:33.033Z,886.55
2018-05-17T05:23:33.015Z,886.55
2018-05-17T05:24:32.999Z,886.55
2018-05-17T05:25:32.990Z,886.57
2018-05-17T05:26:32.973Z,886.65
2018-05-17T05:27:32.961Z,886.66
2018-05-17T05:28:32.951Z,886.66
2018-05-17T05:29:32.936Z,886.68
2018-05-17T05:30:32.922Z,886.67
2018-05-17T05:31:32.991Z,886.66
2018-05-17T05:32:32.898Z,886.64
2018-05-17T05:33:32.886Z,886.63
2018-05-17T05:34:32.879Z,886.65
2018-05-17T05:35:32.862Z,886.63
2018-05-17T05:36:32.844Z,886.63
2018-05-17T05:37:32.899Z,886.68
2018-05-17T05:38:32.823Z,886.68
2018-05-17T05:39:32.809Z,886.70
2018-05-17T05:40:32.800Z,886.71
2018-05-17T05:41:32.785Z,886.76
2018-05-17T05:42:32.777Z,886.72
2018-05-17T05:43:32.759Z,886.75
2018-05-17T05:44:32.749Z,886.77
2018-05-17T05:45:32.737Z,886.79
2018-05-17T05:46:32.739Z,886.78
2018-05-17T05:47:32.708Z,886.70
2018-05-17T05:48:32.694Z,886.75
2018-05-17T05:49:32.753Z,886.76
2018-05-17T05:50:32.670Z,886.73
2018-05-17T05:51:32.664Z,886.73
2018-05-17T05:52:32.648Z,886.76
2018-05-17T05:53:32.630Z,886.77
2018-05-17T05:54:32.623Z,886.79
2018-05-17T05:55:32.613Z,886.78
2018-05-17T05:56:32.621Z,886.83
2018-05-17T05:57:32.583Z,886.78
2018-05-17T05:58:32.569Z,886.79
2018-05-17T05:59:32.569Z,886.81
2018-05-17T06:00:32.548Z,886.79
2018-05-17T06:01:32.536Z,886.80
2018-05-17T06:02:32.522Z,886.82
2018-05-17T06:03:32.505Z,886.83
2018-05-17T06:04:32.492Z,886.87
2018-05-17T06:05:32.483Z,886.87
2018-05-17T06:06:32.471Z,886.90
2018-05-17T06:07:32.452Z,886.87
2018-05-17T06:08:32.451Z,886.89
2018-05-17T06:09:32.433Z,886.88
2018-05-17T06:10:32.419Z,886.87
2018-05-17T06:11:32.407Z,886.92
2018-05-17T06:12:32.396Z,886.91
2018-05-17T06:13:32.383Z,886.94
2018-05-17T06:14:32.366Z,886.90
2018-05-17T06:15:32.355Z,886.95
2018-05-17T06:16:32.346Z,886.88
2018-05-17T06:17:32.330Z,886.92
2018-05-17T06:18:32.320Z,886.91
2018-05-17T06:19:32.310Z,886.93
2018-05-17T06:20:32.293Z,886.93
2018-05-17T06:21:32.281Z,886.96
2018-05-17T06:22:32.267Z,886.93
2018-05-17T06:23:32.255Z,886.96
2018-05-17T06:24:32.243Z,886.96
2018-05-17T06:25:32.231Z,886.92
2018-05-17T06:26:32.220Z,886.94
2018-05-17T06:27:32.205Z,886.95
2018-05-17T06:28:32.192Z,886.92
2018-05-17T06:29:32.182Z,886.94
2018-05-17T06:30:32.169Z,886.92
2018-05-17T06:31:32.156Z,886.91
2018-05-17T06:32:32.144Z,886.91
2018-05-17T06:33:32.130Z,886.89
2018-05-17T06:34:32.115Z,886.88
2018-05-17T06:35:32.103Z,886.89
2018-05-17T06:36:32.088Z,886.88
2018-05-17T06:37:32.116Z,886.90
2018-05-17T06:38:32.071Z,886.92
2018-05-17T06:39:32.051Z,886.91
2018-05-17T06:40:32.041Z,886.97
2018-05-17T06:41:32.029Z,886.92
2018-05-17T06:42:32.014Z,886.91
2018-05-17T06:43:32.006Z,886.88
2018-05-17T06:44:31.989Z,886.87
2018-05-17T06:45:31.976Z,886.90
2018-05-17T06:46:31.967Z,886.86
2018-05-17T06:47:31.949Z,886.88
2018-05-17T06:48:31.941Z,886.87
2018-05-17T06:49:31.927Z,886.89
2018-05-17T06:50:31.918Z,886.88
2018-05-17T06:51:31.898Z,886.88
2018-05-17T06:52:31.896Z,886.87
2018-05-17T06:53:31.872Z,886.85
2018-05-17T06:54:31.864Z,886.88
2018-05-17T06:55:31.851Z,886.87
2018-05-17T06:56:31.838Z,886.86
2018-05-17T06:57:31.827Z,886.91
2018-05-17T06:58:31.817Z,886.88
2018-05-17T06:59:31.803Z,886.91
2018-05-17T07:00:31.819Z,886.92
2018-05-17T07:01:31.779Z,886.92
2018-05-17T07:02:31.763Z,886.92
2018-05-17T07:03:31.755Z,886.92
2018-05-17T07:04:31.739Z,886.95
2018-05-17T07:05:31.730Z,886.97
2018-05-17T07:06:31.714Z,886.94
2018-05-17T07:07:31.704Z,886.96
2018-05-17T07:08:31.691Z,886.98
2018-05-17T07:09:31.676Z,886.98
2018-05-17T07:10:31.677Z,887.00
2018-05-17T07:11:31.652Z,887.00
2018-05-17T07:12:31.641Z,886.97
2018-05-17T07:13:31.628Z,886.98
2018-05-17T07:14:31.615Z,886.98
2018-05-17T07:15:31.603Z,886.99
2018-05-17T07:16:31.583Z,886.98
2018-05-17T07:17:31.577Z,886.99
2018-05-17T07:18:31.722Z,887.02
2018-05-17T07:19:31.554Z,887.01
2018-05-17T07:20:31.540Z,887.02
2018-05-17T07:21:31.526Z,887.02
2018-05-17T07:22:31.515Z,887.05
2018-05-17T07:23:31.501Z,887.07
2018-05-17T07:24:31.487Z,887.05
2018-05-17T07:25:31.485Z,887.06
2018-05-17T07:26:31.466Z,887.01
2018-05-17T07:27:31.451Z,887.06
2018-05-17T07:28:31.440Z,887.08
2018-05-17T07:29:31.427Z,887.06
2018-05-17T07:30:31.416Z,887.06
2018-05-17T07:31:31.404Z,887.11
2018-05-17T07:32:31.390Z,887.06
2018-05-17T07:33:31.376Z,887.08
2018-05-17T07:34:31.371Z,887.10
2018-05-17T07:35:31.352Z,887.13
2018-05-17T07:36:31.339Z,887.09
2018-05-17T07:37:31.335Z,887.09
2018-05-17T07:38:31.321Z,887.11
2018-05-17T07:39:31.307Z,887.09
2018-05-17T07:40:31.301Z,887.11
2018-05-17T07:41:31.285Z,887.10
2018-05-17T07:42:31.273Z,887.10
2018-05-17T07:43:31.266Z,887.05
2018-05-17T07:44:31.245Z,887.05
2018-05-17T07:45:31.232Z,887.06
2018-05-17T07:46:31.224Z,887.04
2018-05-17T07:47:31.206Z,887.05
2018-05-17T07:48:31.199Z,887.10
2018-05-17T07:49:31.187Z,887.06
2018-05-17T07:50:31.175Z,887.03
2018-05-17T07:51:31.163Z,887.01
2018-05-17T07:52:31.149Z,887.03
2018-05-17T07:53:31.145Z,887.01
2018-05-17T07:54:31.128Z,886.99
2018-05-17T07:55:31.137Z,887.00
2018-05-17T07:56:31.104Z,887.07
2018-05-17T07:57:31.092Z,887.06
2018-05-17T07:58:31.085Z,887.07
2018-05-17T07:59:31.063Z,887.05
2018-05-17T08:00:31.142Z,887.06
2018-05-17T08:01:31.048Z,887.06
2018-05-17T08:02:31.038Z,887.06
2018-05-17T08:03:31.024Z,887.07
2018-05-17T08:04:31.011Z,887.03
2018-05-17T08:05:31.002Z,887.03
2018-05-17T08:06:30.989Z,887.07
2018-05-17T08:07:30.975Z,887.08
2018-05-17T08:08:30.963Z,887.08
2018-05-17T08:09:31.116Z,887.06
2018-05-17T08:10:30.940Z,887.08
2018-05-17T08:11:30.928Z,887.07
2018-05-17T08:12:30.921Z,887.09
2018-05-17T08:13:30.904Z,887.10
2018-05-17T08:14:30.895Z,887.07
2018-05-17T08:15:30.880Z,887.08
2018-05-17T08:16:30.875Z,887.10
2018-05-17T08:17:30.861Z,887.07
2018-05-17T08:18:30.846Z,887.08
2018-05-17T08:19:30.836Z,887.09
2018-05-17T08:20:30.830Z,887.09
2018-05-17T08:21:30.818Z,887.07
2018-05-17T08:22:30.803Z,887.09
2018-05-17T08:23:30.791Z,887.08
2018-05-17T08:24:30.778Z,887.12
2018-05-17T08:25:30.768Z,887.11
2018-05-17T08:26:30.760Z,887.15
2018-05-17T08:27:30.750Z,887.15
2018-05-17T08:28:30.734Z,887.18
2018-05-17T08:29:30.726Z,887.19
2018-05-17T08:30:30.712Z,887.17
2018-05-17T08:31:30.695Z,887.16
2018-05-17T08:32:30.692Z,887.18
2018-05-17T08:33:30.673Z,887.17
2018-05-17T08:34:30.667Z,887.18
2018-05-17T08:35:30.653Z,887.18
2018-05-17T08:36:30.855Z,887.22
2018-05-17T08:37:30.635Z,887.22
2018-05-17T08:38:30.613Z,887.21
2018-05-17T08:39:30.606Z,887.23
2018-05-17T08:40:30.589Z,887.23
2018-05-17T08:41:30.587Z,887.23
2018-05-17T08:42:30.573Z,887.26
2018-05-17T08:43:30.560Z,887.26
2018-05-17T08:44:30.550Z,887.24
2018-05-17T08:45:30.559Z,887.26
2018-05-17T08:46:30.526Z,887.24
2018-05-17T08:47:30.516Z,887.26
2018-05-17T08:48:30.502Z,887.24
2018-05-17T08:49:30.489Z,887.24
2018-05-17T08:50:30.482Z,887.25
2018-05-17T08:51:30.467Z,887.25
2018-05-17T08:52:30.451Z,887.32
2018-05-17T08:53:30.443Z,887.31
2018-05-17T08:54:30.491Z,887.31
2018-05-17T08:55:30.429Z,887.31
2018-05-17T08:56:30.407Z,887.35
2018-05-17T08:57:30.396Z,887.36
2018-05-17T08:58:30.384Z,887.33
2018-05-17T08:59:30.371Z,887.38
2018-05-17T09:00:30.368Z,887.37
2018-05-17T09:01:30.348Z,887.37
2018-05-17T09:02:30.337Z,887.40
2018-05-17T09:03:30.325Z,887.39
2018-05-17T09:04:30.314Z,887.41
2018-05-17T09:05:30.306Z,887.39
2018-05-17T09:06:30.292Z,887.39
2018-05-17T09:07:30.280Z,887.42
2018-05-17T09:08:30.269Z,887.43
2018-05-17T09:09:30.255Z,887.40
2018-05-17T09:10:30.244Z,887.40
2018-05-17T09:11:30.234Z,887.41
2018-05-17T09:12:30.220Z,887.41
2018-05-17T09:13:30.230Z,887.40
2018-05-17T09:14:30.203Z,887.45
2018-05-17T09:15:30.183Z,887.43
2018-05-17T09:16:30.169Z,887.46
2018-05-17T09:17:30.159Z,887.41
2018-05-17T09:18:30.145Z,887.47
2018-05-17T09:19:30.133Z,887.42
2018-05-17T09:20:30.175Z,887.45
2018-05-17T09:21:30.113Z,887.44
2018-05-17T09:22:30.105Z,887.47
2018-05-17T09:23:30.094Z,887.45
2018-05-17T09:24:30.076Z,887.47
2018-05-17T09:25:30.070Z,887.43
2018-05-17T09:26:30.057Z,887.51
2018-05-17T09:27:30.042Z,887.50
2018-05-17T09:28:30.030Z,887.51
2018-05-17T09:29:30.018Z,887.51
2018-05-17T09:30:30.007Z,887.51
2018-05-17T09:31:29.993Z,887.52
2018-05-17T09:32:29.986Z,887.48
2018-05-17T09:33:29.970Z,887.51
2018-05-17T09:34:29.959Z,887.50
2018-05-17T09:35:29.955Z,887.51
2018-05-17T09:36:29.932Z,887.50
2018-05-17T09:37:29.925Z,887.54
2018-05-17T09:38:29.912Z,887.55
2018-05-17T09:39:29.906Z,887.53
2018-05-17T09:40:29.896Z,887.56
2018-05-17T09:41:29.950Z,887.56
2018-05-17T09:42:29.868Z,887.53
2018-05-17T09:43:29.858Z,887.56
2018-05-17T09:44:29.849Z,887.59
2018-05-17T09:45:29.832Z,887.59
2018-05-17T09:46:29.818Z,887.59
2018-05-17T09:47:29.856Z,887.59
2018-05-17T09:48:29.797Z,887.57
2018-05-17T09:49:29.776Z,887.56
2018-05-17T09:50:29.771Z,887.60
2018-05-17T09:51:29.759Z,887.61
2018-05-17T09:52:29.748Z,887.59
2018-05-17T09:53:29.738Z,887.60
2018-05-17T09:54:29.730Z,887.61
2018-05-17T09:55:29.714Z,887.59
2018-05-17T09:56:29.706Z,887.59
2018-05-17T09:57:29.691Z,887.63
2018-05-17T09:58:29.681Z,887.60
2018-05-17T09:59:29.663Z,887.63
2018-05-17T10:00:29.658Z,887.61
2018-05-17T10:01:29.649Z,887.61
2018-05-17T10:02:29.636Z,887.58
2018-05-17T10:03:29.622Z,887.62
2018-05-17T10:04:29.611Z,887.59
2018-05-17T10:05:29.600Z,887.61
2018-05-17T10:06:29.586Z,887.59
2018-05-17T10:07:29.574Z,887.61
2018-05-17T10:08:29.563Z,887.63
2018-05-17T10:09:29.552Z,887.60
2018-05-17T10:10:29.540Z,887.61
2018-05-17T10:11:29.531Z,887.62
2018-05-17T10:12:29.513Z,887.61
2018-05-17T10:13:29.507Z,887.63
2018-05-17T10:14:29.595Z,887.64
2018-05-17T10:15:29.536Z,887.67
2018-05-17T10:16:29.471Z,887.64
2018-05-17T10:17:29.459Z,887.65
2018-05-17T10:18:29.444Z,887.67
2018-05-17T10:19:29.440Z,887.65
2018-05-17T10:20:29.426Z,887.67
2018-05-17T10:21:29.412Z,887.67
2018-05-17T10:22:29.400Z,887.70
2018-05-17T10:23:29.384Z,887.68
2018-05-17T10:24:29.380Z,887.71
2018-05-17T10:25:29.374Z,887.69
2018-05-17T10:26:29.358Z,887.71
2018-05-17T10:27:29.339Z,887.72
2018-05-17T10:28:29.330Z,887.74
2018-05-17T10:29:29.366Z,887.71
2018-05-17T10:30:29.305Z,887.69
2018-05-17T10:31:29.291Z,887.69
2018-05-17T10:32:29.281Z,887.73
2018-05-17T10:33:29.271Z,887.69
2018-05-17T10:34:29.255Z,887.69
2018-05-17T10:35:29.244Z,887.70
2018-05-17T10:36:29.236Z,887.67
2018-05-17T10:37:29.222Z,887.72
2018-05-17T10:38:29.222Z,887.72
2018-05-17T10:39:29.202Z,887.69
2018-05-17T10:40:29.186Z,887.69
2018-05-17T10:41:29.182Z,887.73
2018-05-17T10:42:29.165Z,887.76
2018-05-17T10:43:29.157Z,887.71
2018-05-17T10:44:29.145Z,887.74
2018-05-17T10:45:29.133Z,887.76
2018-05-17T10:46:29.119Z,887.76
2018-05-17T10:47:29.104Z,887.78
2018-05-17T10:48:29.099Z,887.76
2018-05-17T10:49:29.090Z,887.77
2018-05-17T10:50:29.071Z,887.77
2018-05-17T10:51:29.063Z,887.78
2018-05-17T10:52:29.049Z,887.82
2018-05-17T10:53:29.036Z,887.82
2018-05-17T10:54:29.058Z,887.86
2018-05-17T10:55:29.019Z,887.83
2018-05-17T10:56:29.023Z,887.83
2018-05-17T10:57:28.993Z,887.88
2018-05-17T10:58:28.978Z,887.84
2018-05-17T10:59:28.971Z,887.86
2018-05-17T11:00:28.952Z,887.87
2018-05-17T11:01:28.943Z,887.85
2018-05-17T11:02:29.004Z,887.86
2018-05-17T11:03:28.943Z,887.84
2018-05-17T11:04:28.906Z,887.84
2018-05-17T11:05:28.896Z,887.86
2018-05-17T11:06:28.891Z,887.84
2018-05-17T11:07:28.878Z,887.80
2018-05-17T11:08:28.865Z,887.79
2018-05-17T11:09:28.855Z,887.83
2018-05-17T11:10:28.848Z,887.85
2018-05-17T11:11:28.832Z,887.82
2018-05-17T11:12:28.819Z,887.80
2018-05-17T11:13:28.807Z,887.84
2018-05-17T11:14:28.798Z,887.79
2018-05-17T11:15:28.780Z,887.83
2018-05-17T11:16:28.771Z,887.78
2018-05-17T11:17:28.767Z,887.82
2018-05-17T11:18:28.748Z,887.81
2018-05-17T11:19:28.739Z,887.81
2018-05-17T11:20:28.726Z,887.84
2018-05-17T11:21:28.714Z,887.81
2018-05-17T11:22:28.706Z,887.81
2018-05-17T11:23:28.699Z,887.82
2018-05-17T11:24:28.687Z,887.80
2018-05-17T11:25:28.675Z,887.80
2018-05-17T11:26:28.662Z,887.81
2018-05-17T11:27:28.652Z,887.83
2018-05-17T11:28:28.639Z,887.80
2018-05-17T11:29:28.627Z,887.80
2018-05-17T11:30:28.612Z,887.81
2018-05-17T11:31:28.603Z,887.78
2018-05-17T11:32:28.590Z,887.82
2018-05-17T11:33:28.583Z,887.80
2018-05-17T11:34:28.575Z,887.79
2018-05-17T11:35:28.562Z,887.80
2018-05-17T11:36:28.548Z,887.82
2018-05-17T11:37:28.544Z,887.79
2018-05-17T11:38:28.529Z,887.80
2018-05-17T11:39:28.512Z,887.83
2018-05-17T11:40:28.507Z,887.79
2018-05-17T11:41:28.495Z,887.80
2018-05-17T11:42:28.478Z,887.83
2018-05-17T11:43:28.468Z,887.82
2018-05-17T11:44:28.461Z,887.82
2018-05-17T11:45:28.450Z,887.80
2018-05-17T11:46:28.444Z,887.81
2018-05-17T11:47:28.421Z,887.79
2018-05-17T11:48:28.614Z,887.83
2018-05-17T11:49:28.406Z,887.83
2018-05-17T11:50:28.429Z,887.85
2018-05-17T11:51:28.377Z,887.88
2018-05-17T11:52:28.366Z,887.87
2018-05-17T11:53:28.359Z,887.88
2018-05-17T11:54:28.375Z,887.87
2018-05-17T11:55:28.332Z,887.88
2018-05-17T11:56:28.323Z,887.87
2018-05-17T11:57:28.313Z,887.91
2018-05-17T11:58:28.304Z,887.91
2018-05-17T11:59:28.287Z,887.89
2018-05-17T12:00:28.278Z,887.91
2018-05-17T12:01:28.353Z,887.91
2018-05-17T12:02:28.256Z,887.90
2018-05-17T12:03:28.243Z,887.92
2018-05-17T12:04:28.233Z,887.87
2018-05-17T12:05:28.223Z,887.89
2018-05-17T12:06:28.210Z,887.86
2018-05-17T12:07:28.257Z,887.89
2018-05-17T12:08:28.184Z,887.87
2018-05-17T12:09:28.177Z,887.92
2018-05-17T12:10:28.168Z,887.89
2018-05-17T12:11:28.153Z,887.87
2018-05-17T12:12:28.149Z,887.88
2018-05-17T12:13:28.184Z,887.89
2018-05-17T12:14:28.123Z,887.90
2018-05-17T12:15:28.108Z,887.93
2018-05-17T12:16:28.108Z,887.93
2018-05-17T12:17:28.089Z,887.92
2018-05-17T12:18:28.078Z,887.92
2018-05-17T12:19:28.067Z,887.95
2018-05-17T12:20:28.051Z,887.91
2018-05-17T12:21:28.044Z,887.99
2018-05-17T12:22:28.031Z,887.95
2018-05-17T12:23:28.017Z,887.92
2018-05-17T12:24:28.013Z,887.91
2018-05-17T12:25:27.997Z,887.92
2018-05-17T12:26:27.987Z,887.91
2018-05-17T12:27:27.971Z,887.90
2018-05-17T12:28:27.976Z,887.89